ETIC

Grafenwohr Army Air Field Airport

Germany
TAF ETIC 212000Z 2120/2302 VRB06KT 9999 OVC030 620302 QNH3005INS BECMG 2218/2219 19008KT 9999 OVC020 600202 QNH2980INS TXM03/2212Z TNM08/2206Z
Issued Valid From Valid To
Jan-21 @ 20:00 UTC
(5 hours ago)
Jan-21 @ 20:00 UTC
(5 hours ago)
Jan-23 @ 02:00 UTC
(-1 days ago)
Jan-21 @ 20:00 to Jan-22 @ 18:00
TAF ETIC 212000Z 2120/2302 VRB06KT 9999 OVC030 620302 QNH3005INS
Wind Visibility Clouds Readings Icing
Variable at 6 knots 10,000+ meters
  • Overcast at 3,000' AGL
Altimeter 30.06" Hg
Pressure 1017.92 hPa
Light icing in cloud expected at 3,000' AGL extending to 5,000' AGL
Becoming Jan-22 @ 18:00 to Jan-23 @ 02:00
BECMG 2218/2219 19008KT 9999 OVC020 600202 QNH2980INS TXM03/2212Z TNM08/2206Z
Wind Visibility Clouds Readings Icing
190° at 8 knots 10,000+ meters
  • Overcast at 2,000' AGL
Altimeter 29.79" Hg
Pressure 1008.92 hPa
TAF ETIC 212000Z 2120/2302 VRB06KT 9999 OVC030 620302 QNH3005INS BECMG 2218/2219 19008KT 9999 OVC020 600202 QNH2980INS TXM03/2212Z TNM08/2206Z
Issued Jan-21 @ 20:00 UTC
(5 hours ago)
Valid From Jan-21 @ 20:00 UTC
(5 hours ago)
Valid To Jan-23 @ 02:00 UTC
(-1 days ago)
Jan-21 @ 20:00 - Jan-22 @ 18:00
Wind Visibility
Variable at 6 knots 10,000+ meters
Clouds
  • Overcast at 3,000' AGL
Becoming Jan-22 @ 18:00 - Jan-23 @ 02:00
Wind Visibility
190° at 8 knots 10,000+ meters
Clouds
  • Overcast at 2,000' AGL